createdAt,value
2022-11-20T00:06:27.855Z,100806.41
2022-11-20T00:16:49.296Z,100803.75
2022-11-20T00:27:10.770Z,100799.47
2022-11-20T00:37:32.228Z,100798.44
2022-11-20T00:47:53.675Z,100795.72
2022-11-20T00:58:15.196Z,100795.63
2022-11-20T01:08:37.716Z,100792.78
2022-11-20T01:19:01.213Z,100794.47
2022-11-20T01:29:26.335Z,100786.84
2022-11-20T01:39:47.773Z,100780.78
2022-11-20T01:50:25.405Z,100769.66
2022-11-20T02:00:46.863Z,100759.41
2022-11-20T02:11:08.434Z,100749.13
2022-11-20T02:21:48.700Z,100746.59
2022-11-20T02:32:26.739Z,100726.09
2022-11-20T02:42:48.699Z,100737.22
2022-11-20T02:53:10.074Z,100720.22
2022-11-20T03:03:31.532Z,100716.72
2022-11-20T03:13:53.006Z,100705.50
2022-11-20T03:24:15.987Z,100688.53
2022-11-20T03:34:37.444Z,100680.03
2022-11-20T03:44:59.188Z,100668.88
2022-11-20T03:55:20.636Z,100655.94
2022-11-20T04:05:42.076Z,100640.47
2022-11-20T04:16:03.991Z,100670.25
2022-11-20T04:26:26.193Z,100657.69
2022-11-20T04:36:47.670Z,100648.25
2022-11-20T04:47:09.114Z,100643.91
2022-11-20T04:57:30.639Z,100635.25
2022-11-20T05:07:52.153Z,100629.16
2022-11-20T05:18:13.600Z,100635.84
2022-11-20T05:28:35.318Z,100628.28
2022-11-20T05:39:01.319Z,100612.91
2022-11-20T05:49:25.975Z,100608.63
2022-11-20T05:59:47.406Z,100585.09
2022-11-20T06:10:09.271Z,100585.19
2022-11-20T06:20:30.717Z,100583.28
2022-11-20T06:30:52.170Z,100582.53
2022-11-20T06:41:16.246Z,100580.78
2022-11-20T06:51:39.189Z,100587.53
2022-11-20T07:02:00.669Z,100590.97
2022-11-20T07:12:22.157Z,100587.53
2022-11-20T07:22:46.895Z,100591.88
2022-11-20T07:33:08.346Z,100595.22
2022-11-20T07:43:30.248Z,100596.09
2022-11-20T07:53:53.209Z,100595.09
2022-11-20T08:04:17.048Z,100596.84
2022-11-20T08:14:38.513Z,100600.97
2022-11-20T08:25:00.040Z,100597.78
2022-11-20T08:35:22.492Z,100592.88
2022-11-20T08:45:44.204Z,100597.94
2022-11-20T08:56:06.425Z,100597.66
2022-11-20T09:06:30.621Z,100586.44
2022-11-20T09:16:52.072Z,100591.44
2022-11-20T09:27:13.534Z,100587.41
2022-11-20T09:37:35.392Z,100602.06
2022-11-20T09:48:19.308Z,100600.28
2022-11-20T09:58:48.564Z,100600.97
2022-11-20T10:09:19.967Z,100591.66
2022-11-20T10:20:12.674Z,100588.38
2022-11-20T10:30:41.225Z,100569.53
2022-11-20T10:41:23.821Z,100564.13
2022-11-20T10:52:05.677Z,100561.41
2022-11-20T11:02:53.994Z,100553.66
2022-11-20T11:13:23.885Z,100549.53
2022-11-20T11:23:45.335Z,100530.78
2022-11-20T11:34:17.630Z,100521.97
2022-11-20T11:45:04.934Z,100512.72
2022-11-20T11:55:44.028Z,100516.34
2022-11-20T12:06:15.315Z,100497.59
2022-11-20T12:16:38.884Z,100478.06
2022-11-20T12:27:35.176Z,100477.69
2022-11-20T12:38:38.733Z,100464.00
2022-11-20T12:49:06.438Z,100455.06
2022-11-20T12:59:46.845Z,100451.38
2022-11-20T13:10:19.214Z,100451.38
2022-11-20T13:20:45.986Z,100443.66
2022-11-20T13:31:25.572Z,100449.34
2022-11-20T13:41:55.736Z,100432.84
2022-11-20T13:52:32.520Z,100425.44
2022-11-20T14:03:06.182Z,100418.81
2022-11-20T14:13:27.624Z,100411.91
2022-11-20T14:23:49.071Z,100401.84
2022-11-20T14:34:21.375Z,100383.53
2022-11-20T14:44:43.847Z,100375.22
2022-11-20T14:55:05.832Z,100366.69
2022-11-20T15:05:46.322Z,100349.19
2022-11-20T15:16:27.807Z,100332.53
2022-11-20T15:26:49.388Z,100318.66
2022-11-20T15:37:10.866Z,100313.41
2022-11-20T15:47:35.313Z,100300.28
2022-11-20T15:57:56.797Z,100286.34
2022-11-20T16:08:18.299Z,100277.41
2022-11-20T16:18:39.770Z,100283.75
2022-11-20T16:29:03.431Z,100273.03
2022-11-20T16:39:26.079Z,100289.06
2022-11-20T16:49:47.525Z,100277.47
2022-11-20T17:00:09.676Z,100267.31
2022-11-20T17:10:34.261Z,100257.47
2022-11-20T17:20:55.792Z,100254.09
2022-11-20T17:31:17.473Z,100238.81
2022-11-20T17:41:38.991Z,100236.56
2022-11-20T17:52:00.512Z,100230.97
2022-11-20T18:02:25.014Z,100220.91
2022-11-20T18:12:46.536Z,100204.72
2022-11-20T18:23:07.995Z,100199.78
2022-11-20T18:33:31.504Z,100190.56
2022-11-20T18:44:11.460Z,100160.63
2022-11-20T18:54:35.680Z,100146.31
2022-11-20T19:04:57.201Z,100142.59
2022-11-20T19:15:18.990Z,100130.69
2022-11-20T19:25:40.452Z,100128.78
2022-11-20T19:36:10.343Z,100128.59
2022-11-20T19:46:33.925Z,100111.44
2022-11-20T19:56:55.704Z,100108.53
2022-11-20T20:07:19.906Z,100101.72
2022-11-20T20:17:41.468Z,100096.50
2022-11-20T20:28:02.951Z,100095.09
2022-11-20T20:38:24.410Z,100095.34
2022-11-20T20:48:49.069Z,100092.50
2022-11-20T20:59:14.555Z,100082.25
2022-11-20T21:09:36.228Z,100088.31
2022-11-20T21:19:57.719Z,100084.25
2022-11-20T21:30:19.258Z,100086.00
2022-11-20T21:40:40.711Z,100092.00
2022-11-20T21:51:10.828Z,100078.59
2022-11-20T22:01:32.431Z,100075.25
2022-11-20T22:11:53.996Z,100055.56
2022-11-20T22:22:15.450Z,100046.28
2022-11-20T22:32:36.891Z,100047.31
2022-11-20T22:42:58.396Z,100045.66
2022-11-20T22:53:19.865Z,100045.03
2022-11-20T23:03:44.421Z,100043.44
2022-11-20T23:14:08.335Z,100051.25
2022-11-20T23:24:29.828Z,100046.44
2022-11-20T23:34:51.565Z,100042.88
2022-11-20T23:45:13.136Z,100042.88
2022-11-20T23:55:35.167Z,100035.28
